68.8°F
Current conditions from King Hill
Updated every 5 minutes
 
  Saturday August 23, 2014

Station Historical Data
Daily Summary for May 26, 2012 Units:  English    Metric   Both
« Previous Day
Next Day »
Daily Weekly Monthly Yearly Custom
  High: Low: Average:
Temperature: 78.5 °F 55.3 °F 69 °F
Dew Point: 64.3 °F 48.2 °F 56.6 °F
Humidity: 92% 41% 67%
Wind Speed: 8.0mph 1.0mph 2.4mph
Wind Gust: 19.0mph - -
Wind- - SW
Pressure: 30.11 in 29.94 in -
Precipitation: 0.00 in    
Historical Graphs
 
 
Tabular Data for May 26, 2012
Time Temperature Dew Point Pressure Wind Wind Speed Wind Gust Humidity Daily Rainfall
00:04 69.4 °F 64.0 °F 29.94 in SW 5.0 mph 19.0 mph 83% 0.00 in
00:10 69.3 °F 64.3 °F 29.94 in SSW 5.0 mph 16.0 mph 84% 0.00 in
00:14 69.3 °F 64.3 °F 29.94 in SSW 6.0 mph 16.0 mph 84% 0.00 in
00:19 69.2 °F 64.2 °F 29.94 in SW 5.0 mph 16.0 mph 84% 0.00 in
00:24 69.2 °F 64.2 °F 29.94 in SW 8.0 mph 17.0 mph 84% 0.00 in
00:29 69.3 °F 64.3 °F 29.94 in SSW 7.0 mph 17.0 mph 84% 0.00 in
00:34 69.2 °F 64.2 °F 29.94 in SW 2.0 mph 17.0 mph 84% 0.00 in
00:39 69.1 °F 64.1 °F 29.94 in SW 6.0 mph 16.0 mph 84% 0.00 in
00:44 69.1 °F 64.1 °F 29.95 in SSW 3.0 mph 16.0 mph 84% 0.00 in
00:49 69.1 °F 64.1 °F 29.95 in SW 5.0 mph 15.0 mph 84% 0.00 in
00:54 69.1 °F 64.1 °F 29.95 in SW 5.0 mph 13.0 mph 84% 0.00 in
00:59 68.9 °F 63.9 °F 29.95 in SW 3.0 mph 14.0 mph 84% 0.00 in
01:04 68.7 °F 64.0 °F 29.96 in SW 2.0 mph 14.0 mph 85% 0.00 in
01:09 68.5 °F 64.2 °F 29.96 in SW 5.0 mph 13.0 mph 86% 0.00 in
01:14 68.2 °F 64.2 °F 29.96 in SSW 3.0 mph 13.0 mph 87% 0.00 in
01:19 67.9 °F 63.9 °F 29.96 in SW 3.0 mph 16.0 mph 87% 0.00 in
01:24 67.7 °F 64.0 °F 29.96 in SSW 4.0 mph 16.0 mph 88% 0.00 in
01:29 67.5 °F 63.8 °F 29.96 in Calm   12.0 mph 88% 0.00 in
01:34 67.4 °F 64.0 °F 29.96 in SW 1.0 mph 8.0 mph 89% 0.00 in
01:39 67.3 °F 63.9 °F 29.96 in SW 1.0 mph 8.0 mph 89% 0.00 in
01:44 67.2 °F 63.9 °F 29.96 in SW 3.0 mph 8.0 mph 89% 0.00 in
01:49 67.2 °F 63.9 °F 29.96 in SW 2.0 mph 8.0 mph 89% 0.00 in
01:54 67.1 °F 63.8 °F 29.96 in Calm   9.0 mph 89% 0.00 in
01:59 67.1 °F 64.1 °F 29.96 in SW 1.0 mph 9.0 mph 90% 0.00 in
02:04 67.0 °F 64.0 °F 29.96 in SW 3.0 mph 8.0 mph 90% 0.00 in
02:09 66.9 °F 63.9 °F 29.96 in SSW 4.0 mph 9.0 mph 90% 0.00 in
02:14 66.8 °F 63.8 °F 29.96 in SW 3.0 mph 9.0 mph 90% 0.00 in
02:19 66.8 °F 63.8 °F 29.96 in SW 2.0 mph 9.0 mph 90% 0.00 in
02:24 66.8 °F 63.8 °F 29.96 in SW 4.0 mph 9.0 mph 90% 0.00 in
02:29 66.8 °F 63.8 °F 29.96 in SW 2.0 mph 8.0 mph 90% 0.00 in
02:39 66.8 °F 63.8 °F 29.97 in SW 2.0 mph 13.0 mph 90% 0.00 in
02:44 66.7 °F 63.7 °F 29.96 in SSW 2.0 mph 8.0 mph 90% 0.00 in
02:49 66.6 °F 63.6 °F 29.97 in SW 4.0 mph 10.0 mph 90% 0.00 in
02:54 66.5 °F 63.5 °F 29.97 in SSW 2.0 mph 10.0 mph 90% 0.00 in
02:59 66.5 °F 63.5 °F 29.97 in SW 3.0 mph 8.0 mph 90% 0.00 in
03:04 66.5 °F 63.5 °F 29.97 in SSW 2.0 mph 10.0 mph 90% 0.00 in
03:09 66.5 °F 63.5 °F 29.97 in Calm   10.0 mph 90% 0.00 in
03:14 66.5 °F 63.8 °F 29.98 in SW 1.0 mph 10.0 mph 91% 0.00 in
03:19 66.5 °F 63.5 °F 29.98 in Calm   10.0 mph 90% 0.00 in
03:24 66.4 °F 63.7 °F 29.97 in SW 1.0 mph 6.0 mph 91% 0.00 in
03:29 66.3 °F 63.6 °F 29.98 in Calm   4.0 mph 91% 0.00 in
03:39 66.2 °F 63.5 °F 29.99 in Calm     91% 0.00 in
03:44 66.1 °F 63.4 °F 29.99 in WSW 2.0 mph 5.0 mph 91% 0.00 in
03:54 66.1 °F 63.4 °F 29.98 in Calm   6.0 mph 91% 0.00 in
03:59 65.9 °F 63.2 °F 29.98 in Calm   1.0 mph 91% 0.00 in
04:04 65.6 °F 62.9 °F 29.98 in Calm   4.0 mph 91% 0.00 in
04:09 65.4 °F 62.7 °F 29.98 in Calm   4.0 mph 91% 0.00 in
04:14 65.3 °F 62.6 °F 29.98 in Calm   4.0 mph 91% 0.00 in
04:19 65.1 °F 62.4 °F 29.99 in SSW 1.0 mph 4.0 mph 91% 0.00 in
04:24 64.9 °F 62.2 °F 29.99 in Calm   4.0 mph 91% 0.00 in
04:29 64.8 °F 62.1 °F 29.99 in SSW 1.0 mph 3.0 mph 91% 0.00 in
04:34 64.7 °F 62.3 °F 29.99 in WSW 1.0 mph 4.0 mph 92% 0.00 in
04:39 64.5 °F 62.1 °F 30.00 in Calm   4.0 mph 92% 0.00 in
04:44 64.6 °F 62.2 °F 30.00 in Calm   4.0 mph 92% 0.00 in
04:49 64.6 °F 62.2 °F 30.00 in Calm   4.0 mph 92% 0.00 in
04:54 64.4 °F 62.0 °F 29.99 in Calm   2.0 mph 92% 0.00 in
04:59 64.2 °F 61.8 °F 30.00 in Calm   2.0 mph 92% 0.00 in
05:04 64.0 °F 61.6 °F 30.00 in Calm   2.0 mph 92% 0.00 in
05:09 63.8 °F 61.4 °F 30.00 in Calm     92% 0.00 in
05:14 63.5 °F 61.1 °F 30.01 in Calm   1.0 mph 92% 0.00 in
05:19 63.2 °F 60.8 °F 30.00 in Calm   1.0 mph 92% 0.00 in
05:24 63.1 °F 60.7 °F 30.00 in Calm   2.0 mph 92% 0.00 in
05:29 63.0 °F 60.6 °F 30.01 in Calm   2.0 mph 92% 0.00 in
05:39 62.7 °F 60.3 °F 30.01 in Calm     92% 0.00 in
05:44 62.7 °F 60.3 °F 30.02 in West 1.0 mph 6.0 mph 92% 0.00 in
05:49 62.6 °F 60.2 °F 30.02 in West 2.0 mph 6.0 mph 92% 0.00 in
05:54 62.4 °F 59.7 °F 30.02 in West 1.0 mph 4.0 mph 91% 0.00 in
06:04 62.5 °F 58.6 °F 30.02 in WNW 2.0 mph 5.0 mph 87% 0.00 in
06:09 62.7 °F 57.8 °F 30.02 in WNW 2.0 mph 5.0 mph 84% 0.00 in
06:14 63.0 °F 57.4 °F 30.03 in Calm   4.0 mph 82% 0.00 in
06:19 63.2 °F 57.3 °F 30.03 in Calm   3.0 mph 81% 0.00 in
06:24 63.2 °F 57.3 °F 30.03 in Calm   2.0 mph 81% 0.00 in
06:34 63.2 °F 57.3 °F 30.04 in Calm   2.0 mph 81% 0.00 in
06:44 63.2 °F 58.0 °F 30.04 in Calm     83% 0.00 in
06:49 63.2 °F 58.0 °F 30.05 in Calm     83% 0.00 in
06:54 63.1 °F 57.9 °F 30.05 in Calm     83% 0.00 in
06:59 63.0 °F 57.8 °F 30.05 in Calm     83% 0.00 in
07:04 63.0 °F 57.1 °F 30.05 in WSW 2.0 mph 4.0 mph 81% 0.00 in
07:09 63.7 °F 57.1 °F 30.05 in WSW 1.0 mph 4.0 mph 79% 0.00 in
07:14 64.4 °F 57.8 °F 30.05 in Calm   4.0 mph 79% 0.00 in
07:19 64.9 °F 56.4 °F 30.05 in Calm   2.0 mph 74% 0.00 in
07:24 65.2 °F 57.5 °F 30.05 in Calm   1.0 mph 76% 0.00 in
07:29 65.3 °F 56.1 °F 30.05 in NW 2.0 mph 5.0 mph 72% 0.00 in
07:34 65.6 °F 56.7 °F 30.05 in Calm   5.0 mph 73% 0.00 in
07:39 65.8 °F 55.0 °F 30.05 in NNW 2.0 mph 4.0 mph 68% 0.00 in
07:44 65.9 °F 55.8 °F 30.05 in Calm   4.0 mph 70% 0.00 in
07:49 65.9 °F 55.8 °F 30.05 in Calm   4.0 mph 70% 0.00 in
07:54 66.1 °F 57.2 °F 30.05 in Calm   4.0 mph 73% 0.00 in
07:59 66.2 °F 56.9 °F 30.06 in Calm   3.0 mph 72% 0.00 in
08:09 66.3 °F 57.4 °F 30.06 in Calm   1.0 mph 73% 0.00 in
08:14 66.5 °F 59.1 °F 30.06 in Calm     77% 0.00 in
08:19 66.5 °F 58.0 °F 30.06 in Calm     74% 0.00 in
08:24 66.4 °F 59.0 °F 30.06 in Calm     77% 0.00 in
08:29 66.5 °F 58.7 °F 30.06 in Calm     76% 0.00 in
08:34 66.5 °F 56.8 °F 30.06 in Calm   2.0 mph 71% 0.00 in
08:39 66.3 °F 56.6 °F 30.07 in Calm   3.0 mph 71% 0.00 in
08:44 66.2 °F 56.9 °F 30.06 in WSW 1.0 mph 3.0 mph 72% 0.00 in
08:49 66.3 °F 57.0 °F 30.07 in Calm   3.0 mph 72% 0.00 in
08:54 66.5 °F 55.6 °F 30.07 in Calm   2.0 mph 68% 0.00 in
09:04 67.4 °F 56.9 °F 30.06 in Calm     69% 0.00 in
09:09 68.1 °F 56.7 °F 30.07 in Calm     67% 0.00 in
09:14 68.5 °F 57.1 °F 30.06 in Calm     67% 0.00 in
09:19 68.7 °F 58.9 °F 30.06 in Calm     71% 0.00 in
09:24 69.6 °F 56.9 °F 30.06 in Calm     64% 0.00 in
09:29 69.9 °F 58.0 °F 30.06 in Calm     66% 0.00 in
09:34 70.0 °F 58.1 °F 30.06 in Calm     66% 0.00 in
09:39 70.4 °F 58.1 °F 30.07 in NW 1.0 mph 3.0 mph 65% 0.00 in
09:49 70.9 °F 58.1 °F 30.07 in Calm   1.0 mph 64% 0.00 in
09:54 71.4 °F 57.7 °F 30.07 in Calm   3.0 mph 62% 0.00 in
09:59 72.0 °F 59.2 °F 30.07 in Calm   3.0 mph 64% 0.00 in
10:04 71.6 °F 56.1 °F 30.07 in Calm   4.0 mph 58% 0.00 in
10:09 71.6 °F 55.6 °F 30.07 in Calm   5.0 mph 57% 0.00 in
10:14 71.5 °F 56.4 °F 30.07 in WNW 2.0 mph 6.0 mph 59% 0.00 in
10:19 71.8 °F 55.8 °F 30.07 in WNW 2.0 mph 6.0 mph 57% 0.00 in
10:24 71.8 °F 55.8 °F 30.07 in Calm   5.0 mph 57% 0.00 in
10:29 71.7 °F 55.7 °F 30.07 in Calm   4.0 mph 57% 0.00 in
10:34 71.9 °F 55.4 °F 30.07 in Calm   4.0 mph 56% 0.00 in
10:39 72.0 °F 55.0 °F 30.08 in Calm   6.0 mph 55% 0.00 in
10:45 72.4 °F 55.8 °F 30.07 in Calm   6.0 mph 56% 0.00 in
10:54 72.4 °F 54.3 °F 30.08 in WNW 2.0 mph 6.0 mph 53% 0.00 in
10:59 72.3 °F 58.1 °F 30.08 in WNW 1.0 mph 6.0 mph 61% 0.00 in
11:04 72.7 °F 54.6 °F 30.07 in NW 3.0 mph 5.0 mph 53% 0.00 in
11:09 72.7 °F 55.6 °F 30.07 in Calm   6.0 mph 55% 0.00 in
11:14 72.9 °F 56.8 °F 30.08 in Calm   6.0 mph 57% 0.00 in
11:19 72.6 °F 54.5 °F 30.08 in WNW 3.0 mph 9.0 mph 53% 0.00 in
11:24 72.6 °F 55.0 °F 30.08 in Calm   9.0 mph 54% 0.00 in
11:34 73.6 °F 54.9 °F 30.08 in Calm   6.0 mph 52% 0.00 in
11:39 73.5 °F 58.8 °F 30.08 in WNW 1.0 mph 7.0 mph 60% 0.00 in
11:44 73.5 °F 56.9 °F 30.08 in Calm   7.0 mph 56% 0.00 in
11:49 73.7 °F 58.5 °F 30.08 in NW 1.0 mph 9.0 mph 59% 0.00 in
11:54 74.3 °F 56.1 °F 30.08 in Calm   9.0 mph 53% 0.00 in
11:59 74.7 °F 57.5 °F 30.08 in WNW 3.0 mph 6.0 mph 55% 0.00 in
12:04 74.6 °F 55.8 °F 30.08 in Calm   6.0 mph 52% 0.00 in
12:09 74.6 °F 56.9 °F 30.08 in WNW 1.0 mph 6.0 mph 54% 0.00 in
12:14 74.5 °F 55.2 °F 30.08 in NW 2.0 mph 7.0 mph 51% 0.00 in
12:19 74.4 °F 52.9 °F 30.08 in WNW 5.0 mph 7.0 mph 47% 0.00 in
12:24 74.5 °F 55.7 °F 30.07 in Calm   7.0 mph 52% 0.00 in
12:29 75.1 °F 54.7 °F 30.07 in Calm   5.0 mph 49% 0.00 in
12:35 75.6 °F 52.8 °F 30.07 in NW 1.0 mph 6.0 mph 45% 0.00 in
12:44 75.6 °F 55.7 °F 30.07 in NW 1.0 mph 9.0 mph 50% 0.00 in
12:49 75.8 °F 56.9 °F 30.07 in NNW 1.0 mph 6.0 mph 52% 0.00 in
12:54 76.0 °F 53.8 °F 30.07 in NW 1.0 mph 7.0 mph 46% 0.00 in
12:59 75.8 °F 54.7 °F 30.07 in NNE 1.0 mph 8.0 mph 48% 0.00 in
13:04 75.7 °F 53.5 °F 30.07 in WNW 4.0 mph 12.0 mph 46% 0.00 in
13:09 75.6 °F 55.7 °F 30.08 in NNW 1.0 mph 12.0 mph 50% 0.00 in
13:14 75.7 °F 52.9 °F 30.07 in Calm   9.0 mph 45% 0.00 in
13:19 75.7 °F 54.1 °F 30.07 in NNE 1.0 mph 7.0 mph 47% 0.00 in
13:24 75.6 °F 52.8 °F 30.07 in Calm   6.0 mph 45% 0.00 in
13:29 75.7 °F 55.8 °F 30.06 in West 4.0 mph 8.0 mph 50% 0.00 in
13:34 75.5 °F 57.2 °F 30.06 in NW 3.0 mph 8.0 mph 53% 0.00 in
13:39 76.0 °F 59.2 °F 30.07 in NW 1.0 mph 6.0 mph 56% 0.00 in
13:44 76.8 °F 55.1 °F 30.07 in NW 1.0 mph 5.0 mph 47% 0.00 in
13:49 76.7 °F 57.2 °F 30.06 in WNW 2.0 mph 7.0 mph 51% 0.00 in
13:54 76.7 °F 55.0 °F 30.06 in NW 4.0 mph 8.0 mph 47% 0.00 in
13:59 76.6 °F 53.7 °F 30.06 in NW 2.0 mph 8.0 mph 45% 0.00 in
14:04 76.4 °F 54.1 °F 30.06 in WNW 4.0 mph 8.0 mph 46% 0.00 in
14:09 76.2 °F 53.9 °F 30.06 in WNW 2.0 mph 8.0 mph 46% 0.00 in
14:14 76.4 °F 56.4 °F 30.06 in NW 4.0 mph 7.0 mph 50% 0.00 in
14:19 76.9 °F 56.9 °F 30.06 in NW 1.0 mph 10.0 mph 50% 0.00 in
14:24 77.0 °F 55.3 °F 30.06 in NW 2.0 mph 10.0 mph 47% 0.00 in
14:29 76.8 °F 55.7 °F 30.06 in WNW 3.0 mph 8.0 mph 48% 0.00 in
14:34 76.8 °F 56.8 °F 30.06 in Calm   7.0 mph 50% 0.00 in
14:49 78.5 °F 55.4 °F 30.06 in Calm   8.0 mph 45% 0.00 in
14:54 77.7 °F 56.5 °F 30.06 in NE 2.0 mph 10.0 mph 48% 0.00 in
14:59 77.3 °F 55.5 °F 30.06 in NE 4.0 mph 11.0 mph 47% 0.00 in
15:05 76.7 °F 56.1 °F 30.07 in North 2.0 mph 14.0 mph 49% 0.00 in
15:14 76.9 °F 52.7 °F 30.06 in NNE 1.0 mph 15.0 mph 43% 0.00 in
15:19 77.2 °F 56.6 °F 30.06 in NW 2.0 mph 9.0 mph 49% 0.00 in
15:24 77.3 °F 53.1 °F 30.06 in NNE 3.0 mph 15.0 mph 43% 0.00 in
15:29 77.2 °F 54.2 °F 30.06 in Calm   15.0 mph 45% 0.00 in
15:34 77.5 °F 56.3 °F 30.06 in Calm   8.0 mph 48% 0.00 in
15:39 77.8 °F 55.4 °F 30.06 in Calm   9.0 mph 46% 0.00 in
15:44 77.9 °F 53.6 °F 30.06 in NNE 1.0 mph 9.0 mph 43% 0.00 in
15:49 77.5 °F 54.5 °F 30.06 in NNE 2.0 mph 10.0 mph 45% 0.00 in
15:54 77.5 °F 55.7 °F 30.06 in NW 3.0 mph 10.0 mph 47% 0.00 in
15:59 77.5 °F 53.9 °F 30.06 in NW 1.0 mph 12.0 mph 44% 0.00 in
16:04 77.4 °F 53.2 °F 30.06 in NNW 3.0 mph 12.0 mph 43% 0.00 in
16:09 77.1 °F 52.9 °F 30.06 in Calm   10.0 mph 43% 0.00 in
16:14 77.3 °F 56.1 °F 30.06 in Calm   7.0 mph 48% 0.00 in
16:19 77.4 °F 56.8 °F 30.05 in WNW 1.0 mph 7.0 mph 49% 0.00 in
16:24 77.5 °F 55.7 °F 30.05 in Calm   7.0 mph 47% 0.00 in
16:29 77.8 °F 56.0 °F 30.05 in Calm   5.0 mph 47% 0.00 in
16:34 77.7 °F 55.3 °F 30.05 in Calm   7.0 mph 46% 0.00 in
16:39 77.4 °F 53.8 °F 30.05 in NE 1.0 mph 7.0 mph 44% 0.00 in
16:44 77.1 °F 51.6 °F 30.06 in North 5.0 mph 12.0 mph 41% 0.00 in
16:49 76.8 °F 51.3 °F 30.06 in NNE 2.0 mph 12.0 mph 41% 0.00 in
16:54 76.3 °F 50.9 °F 30.06 in North 3.0 mph 10.0 mph 41% 0.00 in
16:59 76.3 °F 52.8 °F 30.06 in NNE 1.0 mph 10.0 mph 44% 0.00 in
17:04 76.2 °F 54.5 °F 30.06 in Calm   6.0 mph 47% 0.00 in
17:09 76.6 °F 53.7 °F 30.05 in Calm   9.0 mph 45% 0.00 in
17:14 76.3 °F 51.6 °F 30.05 in NNE 2.0 mph 9.0 mph 42% 0.00 in
17:19 75.8 °F 53.0 °F 30.05 in NNE 2.0 mph 9.0 mph 45% 0.00 in
17:24 75.6 °F 54.6 °F 30.05 in NW 2.0 mph 9.0 mph 48% 0.00 in
17:29 75.6 °F 53.4 °F 30.05 in NNW 1.0 mph 8.0 mph 46% 0.00 in
17:39 75.6 °F 52.2 °F 30.05 in NNE 1.0 mph 8.0 mph 44% 0.00 in
17:44 75.7 °F 55.8 °F 30.04 in Calm   9.0 mph 50% 0.00 in
17:49 75.5 °F 53.9 °F 30.05 in Calm   9.0 mph 47% 0.00 in
17:54 75.2 °F 54.2 °F 30.05 in WNW 1.0 mph 10.0 mph 48% 0.00 in
17:59 75.1 °F 54.7 °F 30.05 in Calm   10.0 mph 49% 0.00 in
18:04 75.2 °F 54.2 °F 30.05 in Calm   3.0 mph 48% 0.00 in
18:09 74.9 °F 53.3 °F 30.04 in Calm   4.0 mph 47% 0.00 in
18:14 74.9 °F 53.3 °F 30.05 in Calm   4.0 mph 47% 0.00 in
18:19 74.6 °F 54.8 °F 30.05 in Calm   7.0 mph 50% 0.00 in
18:24 74.2 °F 54.4 °F 30.05 in NW 1.0 mph 7.0 mph 50% 0.00 in
18:29 73.9 °F 53.6 °F 30.05 in NNW 1.0 mph 7.0 mph 49% 0.00 in
18:34 73.5 °F 53.7 °F 30.05 in Calm   7.0 mph 50% 0.00 in
18:39 73.3 °F 55.2 °F 30.05 in Calm   7.0 mph 53% 0.00 in
18:44 73.3 °F 55.2 °F 30.05 in Calm   1.0 mph 53% 0.00 in
18:54 72.9 °F 54.3 °F 30.05 in Calm   3.0 mph 52% 0.00 in
18:59 72.5 °F 53.4 °F 30.05 in Calm   5.0 mph 51% 0.00 in
19:04 72.2 °F 53.1 °F 30.05 in Calm   5.0 mph 51% 0.00 in
19:09 71.9 °F 52.8 °F 30.05 in Calm   2.0 mph 51% 0.00 in
19:14 71.5 °F 54.0 °F 30.05 in Calm   2.0 mph 54% 0.00 in
19:19 71.3 °F 54.3 °F 30.05 in Calm     55% 0.00 in
19:24 70.9 °F 53.4 °F 30.05 in Calm   2.0 mph 54% 0.00 in
19:29 70.5 °F 53.1 °F 30.05 in Calm   2.0 mph 54% 0.00 in
19:34 70.0 °F 54.1 °F 30.05 in Calm   2.0 mph 57% 0.00 in
19:39 69.5 °F 53.1 °F 30.05 in Calm   2.0 mph 56% 0.00 in
19:44 69.0 °F 53.2 °F 30.06 in Calm   4.0 mph 57% 0.00 in
19:49 68.5 °F 53.6 °F 30.06 in Calm   4.0 mph 59% 0.00 in
19:54 68.0 °F 53.6 °F 30.06 in Calm     60% 0.00 in
19:59 67.6 °F 52.8 °F 30.06 in Calm   3.0 mph 59% 0.00 in
20:04 67.3 °F 52.5 °F 30.06 in Calm   3.0 mph 59% 0.00 in
20:09 66.8 °F 53.4 °F 30.07 in Calm   1.0 mph 62% 0.00 in
20:14 66.4 °F 53.0 °F 30.07 in Calm   1.0 mph 62% 0.00 in
20:19 65.9 °F 52.5 °F 30.07 in Calm   1.0 mph 62% 0.00 in
20:24 65.5 °F 53.0 °F 30.07 in Calm   1.0 mph 64% 0.00 in
20:29 65.2 °F 52.7 °F 30.07 in Calm   1.0 mph 64% 0.00 in
20:34 64.9 °F 52.4 °F 30.07 in Calm   1.0 mph 64% 0.00 in
20:39 64.6 °F 52.6 °F 30.07 in Calm   1.0 mph 65% 0.00 in
20:45 64.3 °F 52.3 °F 30.08 in Calm   1.0 mph 65% 0.00 in
20:54 63.8 °F 52.2 °F 30.08 in Calm   1.0 mph 66% 0.00 in
20:59 63.5 °F 51.9 °F 30.09 in Calm   1.0 mph 66% 0.00 in
21:04 63.2 °F 52.1 °F 30.08 in Calm   1.0 mph 67% 0.00 in
21:09 62.9 °F 51.4 °F 30.08 in Calm   1.0 mph 66% 0.00 in
21:14 62.7 °F 51.2 °F 30.09 in Calm   1.0 mph 66% 0.00 in
21:19 62.6 °F 51.5 °F 30.09 in Calm   1.0 mph 67% 0.00 in
21:24 62.4 °F 51.3 °F 30.09 in Calm   1.0 mph 67% 0.00 in
21:29 62.3 °F 52.0 °F 30.09 in Calm   1.0 mph 69% 0.00 in
21:34 62.2 °F 51.1 °F 30.09 in Calm   1.0 mph 67% 0.00 in
21:39 62.3 °F 50.8 °F 30.09 in Calm   1.0 mph 66% 0.00 in
21:44 62.4 °F 50.9 °F 30.10 in Calm   1.0 mph 66% 0.00 in
21:49 62.4 °F 50.9 °F 30.10 in Calm   1.0 mph 66% 0.00 in
21:54 62.3 °F 50.8 °F 30.10 in Calm   1.0 mph 66% 0.00 in
21:59 61.9 °F 50.4 °F 30.10 in Calm   1.0 mph 66% 0.00 in
22:04 61.6 °F 50.5 °F 30.10 in Calm   1.0 mph 67% 0.00 in
22:09 61.3 °F 50.7 °F 30.10 in Calm   1.0 mph 68% 0.00 in
22:14 61.1 °F 50.5 °F 30.11 in Calm   1.0 mph 68% 0.00 in
22:19 60.9 °F 49.9 °F 30.10 in Calm   3.0 mph 67% 0.00 in
22:24 60.8 °F 50.2 °F 30.11 in Calm   3.0 mph 68% 0.00 in
22:29 60.5 °F 50.3 °F 30.10 in Calm     69% 0.00 in
22:34 60.1 °F 49.9 °F 30.10 in Calm     69% 0.00 in
22:39 59.8 °F 50.0 °F 30.10 in Calm   1.0 mph 70% 0.00 in
22:44 59.7 °F 49.1 °F 30.10 in Calm   2.0 mph 68% 0.00 in
22:49 59.6 °F 49.0 °F 30.10 in Calm   2.0 mph 68% 0.00 in
22:54 59.6 °F 49.4 °F 30.11 in Calm   1.0 mph 69% 0.00 in
22:59 59.5 °F 49.3 °F 30.11 in Calm   3.0 mph 69% 0.00 in
23:04 59.5 °F 50.5 °F 30.11 in Calm   3.0 mph 72% 0.00 in
23:09 59.5 °F 49.7 °F 30.10 in Calm   7.0 mph 70% 0.00 in
23:14 59.4 °F 50.0 °F 30.10 in Calm   7.0 mph 71% 0.00 in
23:19 59.1 °F 50.1 °F 30.10 in Calm   1.0 mph 72% 0.00 in
23:24 59.0 °F 50.0 °F 30.10 in Calm   1.0 mph 72% 0.00 in
23:29 58.7 °F 49.7 °F 30.10 in Calm   2.0 mph 72% 0.00 in
23:34 58.2 °F 49.6 °F 30.10 in Calm   2.0 mph 73% 0.00 in
23:39 57.7 °F 49.1 °F 30.10 in Calm   1.0 mph 73% 0.00 in
23:44 57.0 °F 48.8 °F 30.10 in Calm   1.0 mph 74% 0.00 in
23:49 56.6 °F 49.5 °F 30.10 in Calm   1.0 mph 77% 0.00 in
23:54 56.1 °F 49.3 °F 30.11 in Calm     78% 0.00 in
23:59 55.3 °F 48.2 °F 30.11 in Calm     77% 0.00 in
Westford Weather
Compliments of Weather Underground

 
 
Current Radar Loop:

Copyright © WestfordWeather.net 2007-2014. All rights reserved.